createdAt,value
2023-04-01T00:01:07.070Z,9.32
2023-04-01T00:03:34.967Z,9.31
2023-04-01T00:06:02.565Z,9.31
2023-04-01T00:08:29.838Z,9.30
2023-04-01T00:10:57.878Z,9.31
2023-04-01T00:13:26.621Z,9.31
2023-04-01T00:15:54.638Z,9.31
2023-04-01T00:18:21.731Z,9.30
2023-04-01T00:20:49.512Z,9.31
2023-04-01T00:23:16.683Z,9.30
2023-04-01T00:25:43.488Z,9.30
2023-04-01T00:28:10.641Z,9.29
2023-04-01T00:30:38.146Z,9.30
2023-04-01T00:33:05.008Z,9.32
2023-04-01T00:35:33.402Z,9.32
2023-04-01T00:38:00.084Z,9.30
2023-04-01T00:40:34.014Z,9.30
2023-04-01T00:43:01.290Z,9.29
2023-04-01T00:45:39.606Z,9.32
2023-04-01T00:48:17.898Z,9.33
2023-04-01T00:50:50.146Z,9.33
2023-04-01T00:53:18.855Z,9.31
2023-04-01T00:55:56.334Z,9.29
2023-04-01T00:58:25.889Z,9.26
2023-04-01T01:00:53.223Z,9.24
2023-04-01T01:03:19.957Z,9.23
2023-04-01T01:06:13.891Z,9.20
2023-04-01T01:08:49.687Z,9.19
2023-04-01T01:11:25.246Z,9.18
2023-04-01T01:14:03.960Z,9.16
2023-04-01T01:16:33.173Z,9.16
2023-04-01T01:19:11.542Z,9.15
2023-04-01T01:21:50.457Z,9.14
2023-04-01T01:24:50.401Z,9.13
2023-04-01T01:27:19.592Z,9.11
2023-04-01T01:29:52.204Z,9.10
2023-04-01T01:32:40.430Z,9.09
2023-04-01T01:35:28.847Z,9.08
2023-04-01T01:38:00.585Z,9.07
2023-04-01T01:40:29.956Z,9.08
2023-04-01T01:43:01.450Z,9.07
2023-04-01T01:45:31.491Z,9.03
2023-04-01T01:48:00.859Z,8.98
2023-04-01T01:50:28.734Z,8.96
2023-04-01T01:53:07.743Z,8.96
2023-04-01T01:55:37.418Z,8.93
2023-04-01T01:58:08.526Z,8.89
2023-04-01T02:00:36.547Z,8.89
2023-04-01T02:03:04.932Z,8.88
2023-04-01T02:05:32.838Z,8.87
2023-04-01T02:08:16.203Z,8.86
2023-04-01T02:10:48.237Z,8.83
2023-04-01T02:13:24.625Z,8.83
2023-04-01T02:15:53.679Z,8.82
2023-04-01T02:18:21.579Z,8.79
2023-04-01T02:20:50.161Z,8.78
2023-04-01T02:23:16.841Z,8.78
2023-04-01T02:25:45.974Z,8.77
2023-04-01T02:28:15.400Z,8.75
2023-04-01T02:30:43.783Z,8.74
2023-04-01T02:33:11.119Z,8.73
2023-04-01T02:35:38.315Z,8.71
2023-04-01T02:38:06.849Z,8.69
2023-04-01T02:40:49.540Z,8.68
2023-04-01T02:43:17.240Z,8.69
2023-04-01T02:45:44.392Z,8.67
2023-04-01T02:48:10.987Z,8.64
2023-04-01T02:50:37.479Z,8.64
2023-04-01T02:53:04.860Z,8.63
2023-04-01T02:55:32.328Z,8.63
2023-04-01T02:57:59.529Z,8.62
2023-04-01T03:00:27.018Z,8.61
2023-04-01T03:02:53.889Z,8.61
2023-04-01T03:05:21.177Z,8.60
2023-04-01T03:07:47.665Z,8.59
2023-04-01T03:10:14.419Z,8.58
2023-04-01T03:12:41.376Z,8.59
2023-04-01T03:15:10.688Z,8.57
2023-04-01T03:17:40.084Z,8.57
2023-04-01T03:20:09.535Z,8.57
2023-04-01T03:22:36.324Z,8.58
2023-04-01T03:25:05.718Z,8.58
2023-04-01T03:27:32.594Z,8.57
2023-04-01T03:29:59.200Z,8.56
2023-04-01T03:32:29.047Z,8.54
2023-04-01T03:34:55.628Z,8.54
2023-04-01T03:37:24.487Z,8.57
2023-04-01T03:39:52.022Z,8.57
2023-04-01T03:42:18.823Z,8.58
2023-04-01T03:44:45.457Z,8.58
2023-04-01T03:47:12.783Z,8.58
2023-04-01T03:49:39.241Z,8.59
2023-04-01T03:52:10.191Z,8.61
2023-04-01T03:54:36.913Z,8.60
2023-04-01T03:57:03.634Z,8.61
2023-04-01T03:59:30.279Z,8.64
2023-04-01T04:01:56.838Z,8.66
2023-04-01T04:04:23.493Z,8.67
2023-04-01T04:06:50.015Z,8.67
2023-04-01T04:09:16.921Z,8.67
2023-04-01T04:11:43.345Z,8.70
2023-04-01T04:14:09.939Z,8.72
2023-04-01T04:16:39.730Z,8.73
2023-04-01T04:19:06.576Z,8.74
2023-04-01T04:21:33.377Z,8.73
2023-04-01T04:24:01.692Z,8.75
2023-04-01T04:26:35.440Z,8.77
2023-04-01T04:29:03.209Z,8.76
2023-04-01T04:31:30.622Z,8.78
2023-04-01T04:34:01.908Z,8.79
2023-04-01T04:36:30.611Z,8.79
2023-04-01T04:38:58.976Z,8.79
2023-04-01T04:41:26.813Z,8.80
2023-04-01T04:43:55.617Z,8.81
2023-04-01T04:46:23.972Z,8.81
2023-04-01T04:48:55.978Z,8.83
2023-04-01T04:51:23.003Z,8.86
2023-04-01T04:53:51.488Z,8.87
2023-04-01T04:56:22.219Z,8.89
2023-04-01T04:58:57.340Z,8.89
2023-04-01T05:01:28.907Z,8.90
2023-04-01T05:03:55.626Z,8.91
2023-04-01T05:06:23.578Z,8.91
2023-04-01T05:08:50.389Z,8.92
2023-04-01T05:11:19.359Z,8.94
2023-04-01T05:13:49.177Z,8.93
2023-04-01T05:16:19.228Z,8.95
2023-04-01T05:18:46.414Z,8.95
2023-04-01T05:21:15.549Z,8.95
2023-04-01T05:23:43.045Z,8.94
2023-04-01T05:26:15.134Z,8.95
2023-04-01T05:28:41.907Z,8.97
2023-04-01T05:31:14.538Z,8.96
2023-04-01T05:33:44.417Z,8.95
2023-04-01T05:36:16.698Z,8.97
2023-04-01T05:38:46.676Z,8.97
2023-04-01T05:41:14.802Z,8.97
2023-04-01T05:43:44.778Z,8.98
2023-04-01T05:46:32.310Z,8.97
2023-04-01T05:49:19.142Z,8.97
2023-04-01T05:51:46.020Z,8.98
2023-04-01T05:54:12.592Z,9.00
2023-04-01T05:56:39.756Z,9.02
2023-04-01T05:59:06.504Z,9.03
2023-04-01T06:01:33.010Z,9.03
2023-04-01T06:03:59.746Z,9.05
2023-04-01T06:06:30.610Z,9.04
2023-04-01T06:09:14.958Z,9.04
2023-04-01T06:12:18.777Z,9.05
2023-04-01T06:15:11.630Z,9.06
2023-04-01T06:17:41.559Z,9.05
2023-04-01T06:20:45.200Z,9.08
2023-04-01T06:23:19.144Z,9.08
2023-04-01T06:26:01.169Z,9.08
2023-04-01T06:28:46.261Z,9.09
2023-04-01T06:31:31.041Z,9.08
2023-04-01T06:34:16.398Z,9.12
2023-04-01T06:37:20.687Z,9.11
2023-04-01T06:40:04.553Z,9.12
2023-04-01T06:42:41.517Z,9.13
2023-04-01T06:45:38.859Z,9.16
2023-04-01T06:48:43.232Z,9.18
2023-04-01T06:51:58.676Z,9.18
2023-04-01T06:55:02.113Z,9.19
2023-04-01T06:58:01.686Z,9.21
2023-04-01T07:00:33.772Z,9.22
2023-04-01T07:03:11.609Z,9.24
2023-04-01T07:05:38.625Z,9.25
2023-04-01T07:08:14.374Z,9.26
2023-04-01T07:10:47.013Z,9.28
2023-04-01T07:13:53.746Z,9.31
2023-04-01T07:16:39.497Z,9.33
2023-04-01T07:19:13.144Z,9.35
2023-04-01T07:21:57.205Z,9.39
2023-04-01T07:24:44.800Z,9.40
2023-04-01T07:27:14.453Z,9.42
2023-04-01T07:29:42.418Z,9.40
2023-04-01T07:32:27.842Z,9.43
2023-04-01T07:35:16.324Z,9.44
2023-04-01T07:37:50.777Z,9.48
2023-04-01T07:40:46.748Z,9.50
2023-04-01T07:43:13.367Z,9.52
2023-04-01T07:46:34.353Z,9.55
2023-04-01T07:49:28.895Z,9.55
2023-04-01T07:52:09.974Z,9.55
2023-04-01T07:54:54.714Z,9.55
2023-04-01T07:57:28.606Z,9.56
2023-04-01T08:00:19.669Z,9.58
2023-04-01T08:03:34.484Z,9.57
2023-04-01T08:06:13.149Z,9.55
2023-04-01T08:09:08.752Z,9.57
2023-04-01T08:12:25.023Z,9.61
2023-04-01T08:15:15.742Z,9.63
2023-04-01T08:18:35.813Z,9.68
2023-04-01T08:21:08.494Z,9.68
2023-04-01T08:23:41.203Z,9.69
2023-04-01T08:26:14.833Z,9.68
2023-04-01T08:28:55.822Z,9.69
2023-04-01T08:31:34.202Z,9.70
2023-04-01T08:34:03.694Z,9.69
2023-04-01T08:36:37.329Z,9.69
2023-04-01T08:39:30.182Z,9.73
2023-04-01T08:42:31.360Z,9.74
2023-04-01T08:45:34.541Z,9.74
2023-04-01T08:48:17.699Z,9.78
2023-04-01T08:51:05.178Z,9.81
2023-04-01T08:54:11.950Z,9.81
2023-04-01T08:56:48.832Z,9.82
2023-04-01T08:59:38.155Z,9.87
2023-04-01T09:02:55.179Z,9.91
2023-04-01T09:05:30.239Z,9.98
2023-04-01T09:08:15.460Z,10.00
2023-04-01T09:11:24.191Z,10.04
2023-04-01T09:14:18.644Z,10.07
2023-04-01T09:17:25.622Z,10.09
2023-04-01T09:20:28.896Z,10.12
2023-04-01T09:23:29.174Z,10.15
2023-04-01T09:26:11.720Z,10.17
2023-04-01T09:28:56.688Z,10.19
2023-04-01T09:31:51.275Z,10.24
2023-04-01T09:35:03.702Z,10.28
2023-04-01T09:37:47.982Z,10.37
2023-04-01T09:40:27.127Z,10.43
2023-04-01T09:43:22.352Z,10.49
2023-04-01T09:45:58.530Z,10.54
2023-04-01T09:49:02.318Z,10.64
2023-04-01T09:51:52.692Z,10.81
2023-04-01T09:54:37.240Z,10.87
2023-04-01T09:57:22.259Z,10.87
2023-04-01T10:00:22.734Z,10.90
2023-04-01T10:03:09.955Z,11.03
2023-04-01T10:06:14.257Z,11.22
2023-04-01T10:09:18.146Z,11.49
2023-04-01T10:12:14.030Z,11.67
2023-04-01T10:15:08.688Z,11.75
2023-04-01T10:18:00.431Z,11.78
2023-04-01T10:20:40.816Z,11.83
2023-04-01T10:23:32.141Z,11.88
2023-04-01T10:26:29.981Z,11.83
2023-04-01T10:29:32.940Z,11.84
2023-04-01T10:32:15.826Z,11.86
2023-04-01T10:35:19.724Z,11.83
2023-04-01T10:38:04.701Z,11.82
2023-04-01T10:40:59.840Z,11.85
2023-04-01T10:44:22.883Z,11.83
2023-04-01T10:47:11.264Z,11.76
2023-04-01T10:49:44.428Z,11.79
2023-04-01T10:52:23.575Z,11.80
2023-04-01T10:55:46.581Z,11.84
2023-04-01T10:59:05.509Z,11.99
2023-04-01T11:02:19.617Z,12.14
2023-04-01T11:05:32.491Z,12.31
2023-04-01T11:08:51.105Z,12.22
2023-04-01T11:11:18.526Z,12.14
2023-04-01T11:14:03.795Z,12.15
2023-04-01T11:16:32.990Z,12.01
2023-04-01T11:19:18.121Z,11.85
2023-04-01T11:22:18.738Z,11.85
2023-04-01T11:25:21.401Z,11.92
2023-04-01T11:28:25.864Z,11.91
2023-04-01T11:30:59.678Z,11.93
2023-04-01T11:33:37.995Z,11.90
2023-04-01T11:36:32.171Z,11.92
2023-04-01T11:39:21.511Z,11.96
2023-04-01T11:42:03.247Z,12.05
2023-04-01T11:45:07.382Z,12.03
2023-04-01T11:47:53.661Z,11.98
2023-04-01T11:50:41.324Z,11.91
2023-04-01T11:53:26.921Z,11.83
2023-04-01T11:56:12.593Z,11.75
2023-04-01T11:58:52.143Z,11.71
2023-04-01T12:01:31.344Z,11.67
2023-04-01T12:04:19.258Z,11.63
2023-04-01T12:07:13.866Z,11.65
2023-04-01T12:09:48.321Z,11.68
2023-04-01T12:12:57.986Z,11.77
2023-04-01T12:15:38.321Z,11.83
2023-04-01T12:18:25.002Z,11.91
2023-04-01T12:21:00.128Z,11.95
2023-04-01T12:23:52.626Z,11.97
2023-04-01T12:26:43.080Z,11.90
2023-04-01T12:29:35.834Z,11.85
2023-04-01T12:32:34.908Z,11.86
2023-04-01T12:35:12.919Z,11.86
2023-04-01T12:37:52.824Z,11.80
2023-04-01T12:40:22.151Z,11.79
2023-04-01T12:43:22.796Z,11.82
2023-04-01T12:46:10.075Z,11.89
2023-04-01T12:48:57.954Z,11.93
2023-04-01T12:51:47.326Z,11.95
2023-04-01T12:54:25.895Z,11.97
2023-04-01T12:57:16.776Z,12.05
2023-04-01T12:59:46.275Z,12.10
2023-04-01T13:02:22.891Z,12.10
2023-04-01T13:05:25.384Z,12.15
2023-04-01T13:08:35.680Z,12.09
2023-04-01T13:11:18.465Z,12.00
2023-04-01T13:14:11.896Z,12.02
2023-04-01T13:17:06.026Z,12.04
2023-04-01T13:19:32.454Z,12.00
2023-04-01T13:22:17.225Z,12.01
2023-04-01T13:24:59.689Z,11.94
2023-04-01T13:27:34.946Z,11.90
2023-04-01T13:30:45.705Z,11.85
2023-04-01T13:33:23.814Z,11.82
2023-04-01T13:36:16.454Z,11.78
2023-04-01T13:39:16.509Z,11.70
2023-04-01T13:42:12.450Z,11.62
2023-04-01T13:44:54.121Z,11.68
2023-04-01T13:47:29.296Z,11.61
2023-04-01T13:50:08.685Z,11.59
2023-04-01T13:52:43.266Z,11.55
2023-04-01T13:55:36.968Z,11.50
2023-04-01T13:58:21.858Z,11.53
2023-04-01T14:00:55.224Z,11.55
2023-04-01T14:03:59.611Z,11.54
2023-04-01T14:06:47.984Z,11.51
2023-04-01T14:09:24.727Z,11.49
2023-04-01T14:12:28.918Z,11.47
2023-04-01T14:15:12.306Z,11.49
2023-04-01T14:17:45.679Z,11.44
2023-04-01T14:20:44.169Z,11.37
2023-04-01T14:23:28.098Z,11.31
2023-04-01T14:26:19.467Z,11.28
2023-04-01T14:29:24.291Z,11.23
2023-04-01T14:31:58.373Z,11.16
2023-04-01T14:34:43.794Z,11.13
2023-04-01T14:37:37.888Z,11.08
2023-04-01T14:40:27.628Z,11.06
2023-04-01T14:43:04.833Z,11.01
2023-04-01T14:46:07.114Z,10.99
2023-04-01T14:48:39.231Z,10.96
2023-04-01T14:51:19.718Z,10.95
2023-04-01T14:54:18.305Z,10.94
2023-04-01T14:56:49.241Z,10.93
2023-04-01T14:59:28.835Z,10.88
2023-04-01T15:01:59.018Z,10.89
2023-04-01T15:05:11.468Z,10.86
2023-04-01T15:08:11.747Z,10.85
2023-04-01T15:10:54.673Z,10.84
2023-04-01T15:13:38.700Z,10.84
2023-04-01T15:16:23.822Z,10.85
2023-04-01T15:19:20.956Z,10.84
2023-04-01T15:22:29.892Z,10.89
2023-04-01T15:25:29.247Z,10.92
2023-04-01T15:28:10.690Z,10.94
2023-04-01T15:30:49.657Z,10.98
2023-04-01T15:33:30.022Z,10.93
2023-04-01T15:36:17.278Z,10.90
2023-04-01T15:38:58.185Z,10.93
2023-04-01T15:41:50.033Z,10.94
2023-04-01T15:44:28.641Z,10.90
2023-04-01T15:46:57.534Z,10.89
2023-04-01T15:49:43.245Z,10.86
2023-04-01T15:52:37.739Z,10.78
2023-04-01T15:55:21.737Z,10.75
2023-04-01T15:58:06.125Z,10.71
2023-04-01T16:00:34.829Z,10.66
2023-04-01T16:03:04.199Z,10.60
2023-04-01T16:06:11.458Z,10.56
2023-04-01T16:08:47.102Z,10.51
2023-04-01T16:11:44.357Z,10.47
2023-04-01T16:14:25.889Z,10.44
2023-04-01T16:17:17.012Z,10.40
2023-04-01T16:20:03.514Z,10.32
2023-04-01T16:22:38.313Z,10.26
2023-04-01T16:25:24.170Z,10.24
2023-04-01T16:28:28.270Z,10.22
2023-04-01T16:31:04.693Z,10.19
2023-04-01T16:33:53.074Z,10.13
2023-04-01T16:36:25.548Z,10.12
2023-04-01T16:38:51.943Z,10.10
2023-04-01T16:41:21.334Z,10.08
2023-04-01T16:43:58.039Z,10.07
2023-04-01T16:46:42.110Z,10.03
2023-04-01T16:49:23.580Z,9.97
2023-04-01T16:52:09.386Z,9.92
2023-04-01T16:55:03.049Z,9.89
2023-04-01T16:57:44.746Z,9.87
2023-04-01T17:00:46.669Z,9.82
2023-04-01T17:03:21.533Z,9.74
2023-04-01T17:06:01.967Z,9.68
2023-04-01T17:08:50.349Z,9.63
2023-04-01T17:11:48.666Z,9.62
2023-04-01T17:14:18.304Z,9.57
2023-04-01T17:16:53.654Z,9.53
2023-04-01T17:19:43.523Z,9.47
2023-04-01T17:22:22.259Z,9.43
2023-04-01T17:25:13.154Z,9.41
2023-04-01T17:27:57.705Z,9.38
2023-04-01T17:30:46.977Z,9.39
2023-04-01T17:33:19.222Z,9.32
2023-04-01T17:35:57.477Z,9.32
2023-04-01T17:38:51.111Z,9.32
2023-04-01T17:41:29.865Z,9.28
2023-04-01T17:43:59.449Z,9.24
2023-04-01T17:47:15.358Z,9.18
2023-04-01T17:49:53.542Z,9.15
2023-04-01T17:52:29.065Z,9.12
2023-04-01T17:55:33.081Z,9.10
2023-04-01T17:58:28.337Z,9.09
2023-04-01T18:01:01.397Z,9.05
2023-04-01T18:04:05.100Z,9.05
2023-04-01T18:06:46.234Z,9.05
2023-04-01T18:09:43.473Z,8.98
2023-04-01T18:12:43.633Z,8.92
2023-04-01T18:15:45.852Z,8.91
2023-04-01T18:18:12.683Z,8.90
2023-04-01T18:20:58.880Z,8.87
2023-04-01T18:23:37.054Z,8.89
2023-04-01T18:26:09.447Z,8.90
2023-04-01T18:28:58.155Z,8.85
2023-04-01T18:31:32.930Z,8.80
2023-04-01T18:34:09.634Z,8.75
2023-04-01T18:36:45.350Z,8.72
2023-04-01T18:39:17.453Z,8.68
2023-04-01T18:41:57.090Z,8.67
2023-04-01T18:44:31.128Z,8.68
2023-04-01T18:47:43.508Z,8.64
2023-04-01T18:50:25.343Z,8.63
2023-04-01T18:52:59.735Z,8.58
2023-04-01T18:55:43.856Z,8.55
2023-04-01T18:58:24.523Z,8.52
2023-04-01T19:01:12.059Z,8.51
2023-04-01T19:03:54.043Z,8.47
2023-04-01T19:06:36.034Z,8.50
2023-04-01T19:09:20.410Z,8.48
2023-04-01T19:12:03.558Z,8.47
2023-04-01T19:15:08.477Z,8.44
2023-04-01T19:18:03.677Z,8.44
2023-04-01T19:20:35.907Z,8.42
2023-04-01T19:23:21.507Z,8.41
2023-04-01T19:25:56.492Z,8.39
2023-04-01T19:28:51.847Z,8.37
2023-04-01T19:31:39.720Z,8.32
2023-04-01T19:34:28.703Z,8.28
2023-04-01T19:37:21.475Z,8.26
2023-04-01T19:40:06.835Z,8.25
2023-04-01T19:42:51.630Z,8.24
2023-04-01T19:45:25.024Z,8.21
2023-04-01T19:48:16.434Z,8.18
2023-04-01T19:51:10.925Z,8.16
2023-04-01T19:54:27.798Z,8.15
2023-04-01T19:57:12.416Z,8.16
2023-04-01T20:00:12.781Z,8.13
2023-04-01T20:02:54.971Z,8.09
2023-04-01T20:05:47.906Z,8.02
2023-04-01T20:08:51.741Z,7.96
2023-04-01T20:11:30.532Z,7.93
2023-04-01T20:14:22.521Z,7.90
2023-04-01T20:16:55.395Z,7.87
2023-04-01T20:19:42.641Z,7.85
2023-04-01T20:31:25.872Z,7.76
2023-04-01T20:34:02.647Z,7.75
2023-04-01T20:36:48.676Z,7.73
2023-04-01T20:49:00.715Z,7.60
2023-04-01T20:51:31.694Z,7.57
2023-04-01T20:54:34.021Z,7.53
2023-04-01T21:00:51.341Z,7.49
2023-04-01T21:03:47.476Z,7.49
2023-04-01T21:06:32.866Z,7.51
2023-04-01T21:09:21.167Z,7.51
2023-04-01T21:11:55.709Z,7.46
2023-04-01T21:15:06.870Z,7.44
2023-04-01T21:18:05.347Z,7.41
2023-04-01T21:21:13.832Z,7.39
2023-04-01T21:23:42.928Z,7.33
2023-04-01T21:26:43.800Z,7.27
2023-04-01T21:29:48.984Z,7.21
2023-04-01T21:32:47.666Z,7.20
2023-04-01T21:35:45.544Z,7.17
2023-04-01T21:38:39.153Z,7.12
2023-04-01T21:41:10.445Z,7.11
2023-04-01T21:44:01.842Z,7.09
2023-04-01T21:46:40.364Z,7.06
2023-04-01T21:49:16.040Z,7.02
2023-04-01T21:52:19.766Z,6.99
2023-04-01T21:54:59.661Z,6.95
2023-04-01T21:57:38.495Z,6.93
2023-04-01T22:00:30.303Z,6.92
2023-04-01T22:02:59.290Z,6.90
2023-04-01T22:05:31.757Z,6.88
2023-04-01T22:08:21.032Z,6.89
2023-04-01T22:11:02.240Z,6.89
2023-04-01T22:13:51.526Z,6.85
2023-04-01T22:16:44.239Z,6.82
2023-04-01T22:19:23.052Z,6.77
2023-04-01T22:22:06.881Z,6.73
2023-04-01T22:24:41.469Z,6.67
2023-04-01T22:27:27.189Z,6.66
2023-04-01T22:30:24.213Z,6.63
2023-04-01T22:33:27.265Z,6.63
2023-04-01T22:35:53.701Z,6.58
2023-04-01T22:38:45.213Z,6.58
2023-04-01T22:41:28.406Z,6.58
2023-04-01T22:43:57.775Z,6.57
2023-04-01T22:46:31.261Z,6.54
2023-04-01T22:49:10.528Z,6.51
2023-04-01T22:52:00.638Z,6.49
2023-04-01T22:54:43.078Z,6.53
2023-04-01T22:57:15.191Z,6.50
2023-04-01T23:00:09.174Z,6.46
2023-04-01T23:03:01.472Z,6.45
2023-04-01T23:05:29.679Z,6.44
2023-04-01T23:08:22.246Z,6.43
2023-04-01T23:10:55.450Z,6.41
2023-04-01T23:13:32.455Z,6.40
2023-04-01T23:15:59.730Z,6.34
2023-04-01T23:18:43.166Z,6.31
2023-04-01T23:21:29.942Z,6.31
2023-04-01T23:24:08.505Z,6.28
2023-04-01T23:26:53.187Z,6.29
2023-04-01T23:29:21.399Z,6.26
2023-04-01T23:31:57.262Z,6.25
2023-04-01T23:34:28.567Z,6.26
2023-04-01T23:37:10.638Z,6.22
2023-04-01T23:39:42.580Z,6.17
2023-04-01T23:42:20.591Z,6.15
2023-04-01T23:44:50.030Z,6.12
2023-04-01T23:47:21.459Z,6.08
2023-04-01T23:50:15.954Z,6.06
2023-04-01T23:53:13.659Z,6.01
2023-04-01T23:55:42.585Z,6.01
2023-04-01T23:58:19.480Z,6.01
